createdAt,value
2023-02-03T00:01:13.273Z,97863.03
2023-02-03T00:11:15.499Z,97857.88
2023-02-03T00:21:17.890Z,97853.31
2023-02-03T00:31:22.968Z,97845.44
2023-02-03T00:41:29.807Z,97840.47
2023-02-03T00:51:32.833Z,97838.91
2023-02-03T01:01:35.650Z,97821.19
2023-02-03T01:11:38.339Z,97805.22
2023-02-03T01:21:40.567Z,97783.88
2023-02-03T01:31:42.914Z,97749.16
2023-02-03T01:41:45.283Z,97719.75
2023-02-03T01:51:47.703Z,97698.56
2023-02-03T02:01:51.693Z,97662.56
2023-02-03T02:11:54.013Z,97615.22
2023-02-03T02:22:18.022Z,97634.78
2023-02-03T02:32:20.196Z,97600.09
2023-02-03T02:42:28.264Z,97574.88
2023-02-03T02:52:33.162Z,97574.88
2023-02-03T03:02:36.593Z,97574.06
2023-02-03T03:12:45.707Z,97565.50
2023-02-03T03:22:57.611Z,97538.28
2023-02-03T06:05:10.161Z,97224.66
2023-02-03T06:15:12.482Z,97220.66
2023-02-03T06:25:14.909Z,97239.41
2023-02-03T06:35:17.983Z,97250.63
2023-02-03T06:45:20.216Z,97241.63
2023-02-03T06:55:22.515Z,97206.47
2023-02-03T07:05:25.543Z,97192.41
2023-02-03T07:15:27.803Z,97162.63
2023-02-03T07:25:31.070Z,97155.72
2023-02-03T07:35:33.711Z,97110.94
2023-02-03T07:45:36.232Z,97082.25
2023-02-03T07:55:40.214Z,97085.75
2023-02-03T08:05:42.506Z,97087.69
2023-02-03T08:15:44.896Z,97075.09
2023-02-03T08:25:54.046Z,97057.34
2023-02-03T08:35:57.102Z,97062.94
2023-02-03T08:46:03.574Z,97035.91
2023-02-03T08:56:07.533Z,97029.91
2023-02-03T09:06:13.280Z,97031.63
2023-02-03T09:16:18.844Z,97012.56
2023-02-03T09:26:21.156Z,96987.56
2023-02-03T09:36:23.348Z,96942.84
2023-02-03T09:46:33.493Z,96900.63
2023-02-03T09:56:37.139Z,96881.91
2023-02-03T10:06:45.060Z,96868.97
2023-02-03T10:17:02.550Z,96840.91
2023-02-03T10:27:05.006Z,96770.16
2023-02-03T10:37:24.512Z,96740.03
2023-02-03T10:47:35.025Z,96725.78
2023-02-03T10:57:39.460Z,96689.34
2023-02-03T11:07:41.871Z,96658.91
2023-02-03T11:17:44.820Z,96668.00
2023-02-03T11:27:47.486Z,96654.56
2023-02-03T11:37:55.302Z,96637.91
2023-02-03T11:48:02.622Z,96606.34
2023-02-03T11:58:23.592Z,96611.84
2023-02-03T12:08:25.846Z,96582.84
2023-02-03T12:18:47.280Z,96559.31
2023-02-03T12:29:08.630Z,96572.97
2023-02-03T12:39:33.891Z,96539.88
2023-02-03T12:49:39.649Z,96540.28
2023-02-03T12:59:43.755Z,96526.38
2023-02-03T13:10:21.624Z,96499.81
2023-02-03T13:20:27.575Z,96464.94
2023-02-03T13:30:54.909Z,96490.34
2023-02-03T13:41:06.525Z,96741.94
2023-02-03T13:51:14.172Z,96771.69
2023-02-03T14:01:37.284Z,96715.84
2023-02-03T14:11:41.243Z,96707.25
2023-02-03T14:22:08.121Z,96704.59
2023-02-03T14:32:13.974Z,96734.09
2023-02-03T14:42:16.235Z,96723.50
2023-02-03T14:52:33.529Z,96723.34
2023-02-03T15:02:36.738Z,96709.19
2023-02-03T15:12:39.183Z,96711.16
2023-02-03T15:22:41.739Z,96669.84
2023-02-03T15:32:53.932Z,96684.03
2023-02-03T15:43:16.558Z,96711.00
2023-02-03T15:53:27.618Z,96843.66
2023-02-03T16:03:55.181Z,96825.44
2023-02-03T16:14:00.390Z,96806.72
2023-02-03T16:24:05.567Z,96819.06
2023-02-03T16:34:37.980Z,96831.69
2023-02-03T16:44:58.738Z,96830.31
2023-02-03T16:55:01.015Z,96835.75
2023-02-03T17:05:03.329Z,96848.66
2023-02-03T17:15:06.172Z,96831.13
2023-02-03T17:25:08.469Z,96850.38
2023-02-03T17:35:10.787Z,96841.06
2023-02-03T17:55:30.529Z,96865.00
2023-02-03T18:05:33.554Z,96869.84
2023-02-03T18:15:37.996Z,96899.28
2023-02-03T18:25:40.383Z,96877.94
2023-02-03T18:35:42.834Z,96896.34
2023-02-03T18:45:45.117Z,96905.97
2023-02-03T18:55:47.418Z,96916.56
2023-02-03T19:05:49.712Z,96932.44
2023-02-03T19:15:52.006Z,96929.78
2023-02-03T19:25:54.775Z,96939.94
2023-02-03T19:35:57.830Z,96927.22
2023-02-03T19:46:00.329Z,96922.09
2023-02-03T19:56:02.636Z,96912.84
2023-02-03T20:06:05.021Z,96906.69
2023-02-03T20:16:07.276Z,96876.72
2023-02-03T20:26:09.504Z,96875.53
2023-02-03T20:36:12.461Z,96874.53
2023-02-03T20:46:18.600Z,96860.09
2023-02-03T20:56:21.978Z,96854.72
2023-02-03T21:06:24.833Z,96848.09
2023-02-03T21:16:36.731Z,96860.34
2023-02-03T21:26:38.961Z,96887.28
2023-02-03T21:40:27.388Z,96881.91
2023-02-03T21:50:33.895Z,96893.78
2023-02-03T22:00:48.099Z,96869.19
2023-02-03T22:10:50.444Z,96878.16
2023-02-03T22:20:53.069Z,96874.06
2023-02-03T22:30:55.286Z,96884.41
2023-02-03T22:40:57.733Z,96873.66
2023-02-03T22:51:00.758Z,96880.22
2023-02-03T23:01:03.124Z,96872.78
2023-02-03T23:11:05.493Z,96899.19
2023-02-03T23:21:07.711Z,96911.84
2023-02-03T23:31:10.079Z,96920.47
2023-02-03T23:41:12.282Z,96906.22
2023-02-03T23:51:14.575Z,96888.91
